createdAt,value
2023-06-15T00:05:29.106Z,1011.8
2023-06-15T00:21:03.381Z,1011.7
2023-06-15T00:36:37.270Z,1011.8
2023-06-15T00:52:11.365Z,1011.8
2023-06-15T01:07:45.404Z,1011.9
2023-06-15T01:23:19.477Z,1011.9
2023-06-15T01:38:53.895Z,1011.8
2023-06-15T01:54:28.037Z,1011.7
2023-06-15T02:10:02.132Z,1011.7
2023-06-15T02:25:36.204Z,1011.8
2023-06-15T02:41:10.265Z,1011.7
2023-06-15T02:56:44.372Z,1011.8
2023-06-15T03:12:18.421Z,1011.8
2023-06-15T03:27:52.552Z,1011.9
2023-06-15T03:43:26.614Z,1012
2023-06-15T03:59:00.770Z,1012.1
2023-06-15T04:14:35.478Z,1012
2023-06-15T04:30:09.641Z,1012.2
2023-06-15T04:45:43.736Z,1012.3
2023-06-15T05:01:17.914Z,1012.4
2023-06-15T05:16:52.086Z,1012.3
2023-06-15T05:32:26.397Z,1012.2
2023-06-15T05:48:00.797Z,1012.2
2023-06-15T06:03:36.138Z,1012.2
2023-06-15T06:19:10.405Z,1012.2
2023-06-15T06:34:44.589Z,1012.2
2023-06-15T06:50:18.826Z,1012.2
2023-06-15T07:05:53.034Z,1012.3
2023-06-15T07:21:27.678Z,1012.1
2023-06-15T07:37:02.046Z,1012
2023-06-15T07:52:37.108Z,1011.9
2023-06-15T08:08:11.443Z,1012
2023-06-15T08:23:45.773Z,1011.8
2023-06-15T08:39:20.624Z,1011.8
2023-06-15T08:54:55.338Z,1011.7
2023-06-15T09:10:29.714Z,1011.6
2023-06-15T09:26:04.147Z,1011.5
2023-06-15T09:41:38.418Z,1011.5
2023-06-15T09:57:12.877Z,1011.4
2023-06-15T10:12:47.309Z,1011.3
2023-06-15T10:28:21.572Z,1011.3
2023-06-15T10:43:55.879Z,1011
2023-06-15T10:59:32.591Z,1011.1
2023-06-15T11:15:07.457Z,1011
2023-06-15T11:30:42.054Z,1010.9
2023-06-15T11:46:17.795Z,1010.7
2023-06-15T12:01:52.061Z,1010.7
2023-06-15T12:17:26.668Z,1010.6
2023-06-15T12:33:01.256Z,1010.4
2023-06-15T12:48:36.056Z,1010.3
2023-06-15T13:04:10.499Z,1010.2
2023-06-15T13:19:45.535Z,1010
2023-06-15T13:35:19.997Z,1010
2023-06-15T13:50:54.650Z,1009.9
2023-06-15T14:06:28.920Z,1009.9
2023-06-15T14:22:03.392Z,1009.8
2023-06-15T14:37:37.775Z,1009.7
2023-06-15T14:53:12.104Z,1009.8
2023-06-15T15:08:46.394Z,1009.7
2023-06-15T15:24:20.836Z,1009.5
2023-06-15T15:39:55.185Z,1009.4
2023-06-15T15:55:30.023Z,1009.4
2023-06-15T16:11:04.316Z,1009.3
2023-06-15T16:26:38.777Z,1009.2
2023-06-15T16:42:13.059Z,1009.3
2023-06-15T16:57:47.389Z,1009.3
2023-06-15T17:13:21.911Z,1009.4
2023-06-15T17:28:56.186Z,1009.4
2023-06-15T17:44:30.539Z,1009.5
2023-06-15T18:00:04.837Z,1009.4
2023-06-15T18:15:39.205Z,1009.6
2023-06-15T18:31:13.939Z,1009.6
2023-06-15T18:46:48.220Z,1009.7
2023-06-15T19:02:22.477Z,1009.8
2023-06-15T19:17:57.399Z,1009.8
2023-06-15T19:33:31.769Z,1010
2023-06-15T19:49:06.113Z,1010.1
2023-06-15T20:04:40.451Z,1010.2
2023-06-15T20:20:14.700Z,1010.2
2023-06-15T20:35:48.944Z,1010.3
2023-06-15T20:51:23.871Z,1010.3
2023-06-15T21:06:58.092Z,1010.2
2023-06-15T21:22:32.322Z,1010.2
2023-06-15T21:38:06.532Z,1010.1
2023-06-15T21:53:40.771Z,1010.1
2023-06-15T22:09:14.936Z,1010.2
2023-06-15T22:24:49.130Z,1010.2
2023-06-15T22:40:23.372Z,1010.2
2023-06-15T22:55:57.577Z,1010.2
2023-06-15T23:11:32.322Z,1010.2
2023-06-15T23:27:06.693Z,1010.2
2023-06-15T23:42:40.832Z,1010.1
2023-06-15T23:58:15.226Z,1010
